Flugplatz Buchel Airport

Bericht für ETSB

vom 02.06. um 22:20 UTC

Wind 5 kt aus 20°

Sichtweite 10 km oder mehr

Temperatur 19.0°C

Taupunkt 6.0°C

Luftfeuchtigkeit 43%

Luftdruck 1012 hPa

ETSB 022220Z AUTO 02005KT 9999 // ////// 19/06 Q1012 ///
Keine Prognose (TAF) verfügbar.
Impressum